Bryan, TX (77801)

10:13 AM CDT on September 05, 2015 (GMT -0500)
Woodland Hights | | Change Station
CLOSE
Current Station
Personal Weather Station
Location: Bryan, TX
Elevation: 335 ft
Nearby Weather Stations

Elev 335 ft 30.65 °N, 96.36 °W | Updated 13 minutes ago

Overcast
Overcast
83.2 °F
Feels Like 92 °F
N
0.0
Wind Variable Wind from North
Gusts 3.0 mph

Today
High -- | Low -- °F
--% Chance of Precip.
Yesterday
High -- | Low -- °F
Precip. -- in
7:04 AM 7:43 PM
Waning Gibbous, 48% visible
Pressure 30.02 in
Visibility 10.0 miles
Clouds Few 900 ft
Scattered Clouds 2800 ft
Mostly Cloudy 3500 ft
Heat Index 92 °F
Dew Point 77 °F
Humidity 82%
Rainfall 0.00 in
Snow Depth Not available.
UV 2 out of 12
Pollen 6.30 out of 12
Air Quality Not available.
Flu Activity Not available.
METAR KCLL 051453Z 18008KT 10SM FEW009 SCT028 BKN035 28/25 A3004 RMK AO2 SLP165 T02830250 53012
Pressure 30.02 in
Visibility 10.0 miles
Clouds Few 900 ft
Scattered Clouds 2800 ft
Mostly Cloudy 3500 ft
Heat Index 92 °F
Dew Point 77 °F
Humidity 82%
Rainfall 0.00 in
Snow Depth Not available.
UV 2 out of 12
Pollen 6.30 out of 12
Air Quality Not available.
Flu Activity Not available.
METAR KCLL 051453Z 18008KT 10SM FEW009 SCT028 BKN035 28/25 A3004 RMK AO2 SLP165 T02830250 53012

10-Day Weather Forecast

×

Almanac

Astronomy

Sep. 05, 2015 Rise Set
Actual Time
Civil Twilight
Nautical Twilight
Astronomical Twilight
Moon
Length of Visible Light
Length of Day
Tomorrow will be .
, % of the Moon is Illuminated

Today's Extremes

State Highs State Lows

Community

WunderPhotos

Upload Photos

1,852,480 photos uploaded!

WunderBlogs® & News

Nearby

Air Quality

  Air Quality AQ Index Pollutant
Not available.

Snow Depth

Station Depth Elevation

Earthquake Activity

City Distance Mag. Time & Date
Minimum magnitude displayed is 2.5.

Coastal Water Temperatures

Place Temperature

Stations

Nearby Weather Stations

Station Location Temp. Windchill Dew Point Humidity Wind Precip. Elev Updated Type